sensor_id;sensor_type;location;lat;lon;timestamp;pressure;altitude;pressure_sealevel;temperature;humidity
43147;BME280;28752;48.266;7.402;2024-02-28T00:02:05;99456.13;;;11.25;64.12
43147;BME280;28752;48.266;7.402;2024-02-28T00:04:30;99455.59;;;11.40;63.71
43147;BME280;28752;48.266;7.402;2024-02-28T00:06:55;99451.84;;;11.32;64.04
43147;BME280;28752;48.266;7.402;2024-02-28T00:09:21;99458.19;;;11.49;63.55
43147;BME280;28752;48.266;7.402;2024-02-28T00:11:46;99450.06;;;11.33;64.05
43147;BME280;28752;48.266;7.402;2024-02-28T00:14:14;99455.50;;;11.31;64.13
43147;BME280;28752;48.266;7.402;2024-02-28T00:16:40;99453.47;;;10.97;64.27
43147;BME280;28752;48.266;7.402;2024-02-28T00:19:06;99452.97;;;10.84;64.52
43147;BME280;28752;48.266;7.402;2024-02-28T00:21:31;99451.16;;;11.12;63.92
43147;BME280;28752;48.266;7.402;2024-02-28T00:23:57;99446.84;;;11.11;63.58
43147;BME280;28752;48.266;7.402;2024-02-28T00:26:22;99447.91;;;11.18;63.24
43147;BME280;28752;48.266;7.402;2024-02-28T00:28:47;99449.59;;;11.19;63.44
43147;BME280;28752;48.266;7.402;2024-02-28T00:31:12;99449.34;;;11.31;63.21
43147;BME280;28752;48.266;7.402;2024-02-28T00:33:38;99458.38;;;11.38;62.93
43147;BME280;28752;48.266;7.402;2024-02-28T00:36:03;99454.38;;;11.52;62.63
43147;BME280;28752;48.266;7.402;2024-02-28T00:38:28;99452.69;;;11.15;63.49
43147;BME280;28752;48.266;7.402;2024-02-28T00:40:54;99462.59;;;11.13;63.57
43147;BME280;28752;48.266;7.402;2024-02-28T00:43:19;99459.41;;;11.09;63.61
43147;BME280;28752;48.266;7.402;2024-02-28T00:45:44;99458.66;;;11.17;63.53
43147;BME280;28752;48.266;7.402;2024-02-28T00:48:10;99458.59;;;11.09;63.72
43147;BME280;28752;48.266;7.402;2024-02-28T00:50:35;99463.28;;;11.15;63.45
43147;BME280;28752;48.266;7.402;2024-02-28T00:53:00;99466.75;;;11.15;63.61
43147;BME280;28752;48.266;7.402;2024-02-28T00:55:26;99469.84;;;11.11;63.87
43147;BME280;28752;48.266;7.402;2024-02-28T00:57:51;99472.06;;;11.15;63.72
43147;BME280;28752;48.266;7.402;2024-02-28T01:00:16;99474.78;;;11.06;63.95
43147;BME280;28752;48.266;7.402;2024-02-28T01:02:41;99473.34;;;11.11;63.86
43147;BME280;28752;48.266;7.402;2024-02-28T01:05:07;99473.63;;;11.08;63.95
43147;BME280;28752;48.266;7.402;2024-02-28T01:07:32;99482.63;;;10.97;64.16
43147;BME280;28752;48.266;7.402;2024-02-28T01:09:57;99474.06;;;10.76;64.71
43147;BME280;28752;48.266;7.402;2024-02-28T01:12:23;99474.16;;;10.84;64.62
43147;BME280;28752;48.266;7.402;2024-02-28T01:14:48;99479.16;;;10.59;65.07
43147;BME280;28752;48.266;7.402;2024-02-28T01:17:13;99478.56;;;10.65;64.89
43147;BME280;28752;48.266;7.402;2024-02-28T01:19:38;99468.69;;;10.58;64.85
43147;BME280;28752;48.266;7.402;2024-02-28T01:22:04;99472.66;;;10.44;65.11
43147;BME280;28752;48.266;7.402;2024-02-28T01:24:29;99478.38;;;10.39;65.24
43147;BME280;28752;48.266;7.402;2024-02-28T01:26:54;99478.09;;;10.42;65.10
43147;BME280;28752;48.266;7.402;2024-02-28T01:29:20;99474.88;;;10.29;65.37
43147;BME280;28752;48.266;7.402;2024-02-28T01:31:45;99475.47;;;10.23;65.77
43147;BME280;28752;48.266;7.402;2024-02-28T01:34:10;99478.41;;;10.00;66.14
43147;BME280;28752;48.266;7.402;2024-02-28T01:36:36;99471.41;;;10.19;65.69
43147;BME280;28752;48.266;7.402;2024-02-28T01:39:01;99474.94;;;10.00;66.07
43147;BME280;28752;48.266;7.402;2024-02-28T01:41:26;99477.72;;;9.98;66.00
43147;BME280;28752;48.266;7.402;2024-02-28T01:43:51;99477.72;;;9.98;66.16
43147;BME280;28752;48.266;7.402;2024-02-28T01:48:47;99489.16;;;9.69;66.55
43147;BME280;28752;48.266;7.402;2024-02-28T01:51:12;99477.44;;;9.62;67.14
43147;BME280;28752;48.266;7.402;2024-02-28T01:53:38;99489.28;;;9.77;66.61
43147;BME280;28752;48.266;7.402;2024-02-28T01:56:03;99486.09;;;9.74;66.79
43147;BME280;28752;48.266;7.402;2024-02-28T01:58:29;99486.06;;;9.84;66.51
43147;BME280;28752;48.266;7.402;2024-02-28T02:00:54;99499.84;;;9.77;66.59
43147;BME280;28752;48.266;7.402;2024-02-28T02:03:20;99496.94;;;9.71;66.99
43147;BME280;28752;48.266;7.402;2024-02-28T02:05:46;99502.22;;;9.71;66.79
43147;BME280;28752;48.266;7.402;2024-02-28T02:08:11;99509.91;;;9.64;66.90
43147;BME280;28752;48.266;7.402;2024-02-28T02:10:36;99511.97;;;9.51;67.45
43147;BME280;28752;48.266;7.402;2024-02-28T02:13:05;99518.63;;;9.55;67.17
43147;BME280;28752;48.266;7.402;2024-02-28T02:15:31;99516.66;;;9.47;67.26
43147;BME280;28752;48.266;7.402;2024-02-28T02:17:56;99512.09;;;9.59;67.04
43147;BME280;28752;48.266;7.402;2024-02-28T02:20:21;99512.91;;;9.59;66.77
43147;BME280;28752;48.266;7.402;2024-02-28T02:22:47;99521.72;;;9.60;66.85
43147;BME280;28752;48.266;7.402;2024-02-28T02:25:12;99520.47;;;9.74;66.54
43147;BME280;28752;48.266;7.402;2024-02-28T02:27:38;99523.53;;;9.69;66.48
43147;BME280;28752;48.266;7.402;2024-02-28T02:30:04;99523.81;;;9.66;66.66
43147;BME280;28752;48.266;7.402;2024-02-28T02:32:29;99523.25;;;9.72;66.48
43147;BME280;28752;48.266;7.402;2024-02-28T02:34:55;99525.63;;;9.66;66.44
43147;BME280;28752;48.266;7.402;2024-02-28T02:37:20;99531.16;;;9.53;66.70
43147;BME280;28752;48.266;7.402;2024-02-28T02:39:46;99541.47;;;9.66;66.53
43147;BME280;28752;48.266;7.402;2024-02-28T02:42:11;99547.19;;;9.71;66.10
43147;BME280;28752;48.266;7.402;2024-02-28T02:44:39;99545.81;;;9.86;65.87
43147;BME280;28752;48.266;7.402;2024-02-28T02:47:05;99544.25;;;9.84;65.75
43147;BME280;28752;48.266;7.402;2024-02-28T02:49:30;99555.56;;;10.05;65.29
43147;BME280;28752;48.266;7.402;2024-02-28T02:51:55;99550.25;;;9.95;65.23
43147;BME280;28752;48.266;7.402;2024-02-28T02:54:21;99554.31;;;10.00;65.22
43147;BME280;28752;48.266;7.402;2024-02-28T02:56:46;99552.75;;;9.77;65.49
43147;BME280;28752;48.266;7.402;2024-02-28T02:59:11;99549.00;;;9.80;65.66
43147;BME280;28752;48.266;7.402;2024-02-28T03:01:37;99555.97;;;9.91;65.46
43147;BME280;28752;48.266;7.402;2024-02-28T03:04:02;99552.91;;;9.86;65.68
43147;BME280;28752;48.266;7.402;2024-02-28T03:06:27;99555.84;;;9.83;65.58
43147;BME280;28752;48.266;7.402;2024-02-28T03:08:53;99561.38;;;9.89;65.22
43147;BME280;28752;48.266;7.402;2024-02-28T03:11:18;99558.47;;;9.83;65.53
43147;BME280;28752;48.266;7.402;2024-02-28T03:13:43;99560.69;;;9.87;65.31
43147;BME280;28752;48.266;7.402;2024-02-28T03:16:09;99561.94;;;9.83;65.48
43147;BME280;28752;48.266;7.402;2024-02-28T03:18:34;99568.09;;;9.93;65.24
43147;BME280;28752;48.266;7.402;2024-02-28T03:20:59;99573.06;;;9.87;65.36
43147;BME280;28752;48.266;7.402;2024-02-28T03:23:25;99569.75;;;9.75;65.52
43147;BME280;28752;48.266;7.402;2024-02-28T03:25:50;99573.06;;;9.67;65.86
43147;BME280;28752;48.266;7.402;2024-02-28T03:28:16;99573.72;;;9.59;66.01
43147;BME280;28752;48.266;7.402;2024-02-28T03:30:41;99572.38;;;9.75;65.68
43147;BME280;28752;48.266;7.402;2024-02-28T03:33:06;99574.47;;;9.81;65.41
43147;BME280;28752;48.266;7.402;2024-02-28T03:35:33;99581.56;;;9.81;65.41
43147;BME280;28752;48.266;7.402;2024-02-28T03:37:58;99582.13;;;9.84;65.63
43147;BME280;28752;48.266;7.402;2024-02-28T03:40:23;99588.66;;;9.90;65.29
43147;BME280;28752;48.266;7.402;2024-02-28T03:42:48;99588.28;;;9.94;65.13
43147;BME280;28752;48.266;7.402;2024-02-28T03:45:14;99587.00;;;9.89;65.23
43147;BME280;28752;48.266;7.402;2024-02-28T03:47:42;99596.22;;;10.04;64.91
43147;BME280;28752;48.266;7.402;2024-02-28T03:50:07;99590.22;;;10.12;64.71
43147;BME280;28752;48.266;7.402;2024-02-28T03:52:33;99594.13;;;9.98;64.94
43147;BME280;28752;48.266;7.402;2024-02-28T03:54:58;99592.72;;;9.84;65.23
43147;BME280;28752;48.266;7.402;2024-02-28T03:57:23;99600.50;;;9.86;65.15
43147;BME280;28752;48.266;7.402;2024-02-28T03:59:49;99600.19;;;9.79;65.19
43147;BME280;28752;48.266;7.402;2024-02-28T04:02:14;99608.84;;;9.91;64.98
43147;BME280;28752;48.266;7.402;2024-02-28T04:04:39;99613.56;;;9.77;65.64
43147;BME280;28752;48.266;7.402;2024-02-28T04:07:05;99615.25;;;9.78;65.84
43147;BME280;28752;48.266;7.402;2024-02-28T04:09:30;99619.13;;;9.65;66.10
43147;BME280;28752;48.266;7.402;2024-02-28T04:11:56;99624.13;;;9.68;65.99
43147;BME280;28752;48.266;7.402;2024-02-28T04:14:21;99623.84;;;9.61;65.81
43147;BME280;28752;48.266;7.402;2024-02-28T04:16:46;99621.41;;;9.38;66.48
43147;BME280;28752;48.266;7.402;2024-02-28T04:19:12;99621.41;;;9.38;66.47
43147;BME280;28752;48.266;7.402;2024-02-28T04:21:37;99634.50;;;9.50;66.50
43147;BME280;28752;48.266;7.402;2024-02-28T04:24:03;99634.53;;;9.59;66.17
43147;BME280;28752;48.266;7.402;2024-02-28T04:26:29;99633.19;;;9.34;66.30
43147;BME280;28752;48.266;7.402;2024-02-28T04:28:54;99631.16;;;9.48;66.40
43147;BME280;28752;48.266;7.402;2024-02-28T04:31:19;99632.25;;;9.45;66.31
43147;BME280;28752;48.266;7.402;2024-02-28T04:33:45;99633.91;;;9.36;66.54
43147;BME280;28752;48.266;7.402;2024-02-28T04:36:10;99641.78;;;9.27;66.62
43147;BME280;28752;48.266;7.402;2024-02-28T04:38:35;99646.81;;;9.30;66.55
43147;BME280;28752;48.266;7.402;2024-02-28T04:41:01;99651.38;;;9.28;66.83
43147;BME280;28752;48.266;7.402;2024-02-28T04:43:26;99665.41;;;8.97;67.35
43147;BME280;28752;48.266;7.402;2024-02-28T04:45:51;99655.88;;;9.06;67.25
43147;BME280;28752;48.266;7.402;2024-02-28T04:48:16;99658.91;;;9.01;67.33
43147;BME280;28752;48.266;7.402;2024-02-28T04:50:42;99654.22;;;9.05;67.22
43147;BME280;28752;48.266;7.402;2024-02-28T04:53:07;99659.97;;;9.20;66.69
43147;BME280;28752;48.266;7.402;2024-02-28T04:55:32;99662.56;;;9.10;67.01
43147;BME280;28752;48.266;7.402;2024-02-28T04:57:57;99660.56;;;9.23;66.76
43147;BME280;28752;48.266;7.402;2024-02-28T05:00:23;99670.72;;;9.28;66.47
43147;BME280;28752;48.266;7.402;2024-02-28T05:02:48;99667.34;;;9.26;66.64
43147;BME280;28752;48.266;7.402;2024-02-28T05:05:13;99667.28;;;9.06;67.26
43147;BME280;28752;48.266;7.402;2024-02-28T05:07:39;99658.38;;;9.07;66.87
43147;BME280;28752;48.266;7.402;2024-02-28T05:10:05;99659.78;;;9.12;66.81
43147;BME280;28752;48.266;7.402;2024-02-28T05:12:30;99666.44;;;9.06;67.12
43147;BME280;28752;48.266;7.402;2024-02-28T05:14:55;99664.53;;;8.87;67.67
43147;BME280;28752;48.266;7.402;2024-02-28T05:17:21;99666.38;;;9.17;66.82
43147;BME280;28752;48.266;7.402;2024-02-28T05:19:46;99666.56;;;9.04;67.00
43147;BME280;28752;48.266;7.402;2024-02-28T05:22:11;99665.72;;;8.83;67.61
43147;BME280;28752;48.266;7.402;2024-02-28T05:24:37;99671.09;;;8.71;67.75
43147;BME280;28752;48.266;7.402;2024-02-28T05:27:02;99670.63;;;8.66;67.93
43147;BME280;28752;48.266;7.402;2024-02-28T05:29:27;99662.63;;;8.57;68.27
43147;BME280;28752;48.266;7.402;2024-02-28T05:31:53;99675.63;;;8.69;67.87
43147;BME280;28752;48.266;7.402;2024-02-28T05:34:18;99673.22;;;8.78;67.60
43147;BME280;28752;48.266;7.402;2024-02-28T05:36:43;99681.78;;;8.70;67.78
43147;BME280;28752;48.266;7.402;2024-02-28T05:39:09;99677.13;;;8.83;67.52
43147;BME280;28752;48.266;7.402;2024-02-28T05:41:34;99673.47;;;8.75;67.50
43147;BME280;28752;48.266;7.402;2024-02-28T05:43:59;99681.00;;;8.58;67.92
43147;BME280;28752;48.266;7.402;2024-02-28T05:46:24;99676.63;;;8.68;67.71
43147;BME280;28752;48.266;7.402;2024-02-28T05:48:50;99674.81;;;8.69;67.73
43147;BME280;28752;48.266;7.402;2024-02-28T05:51:15;99679.50;;;8.65;67.81
43147;BME280;28752;48.266;7.402;2024-02-28T05:53:41;99677.44;;;8.69;67.62
43147;BME280;28752;48.266;7.402;2024-02-28T05:56:07;99670.75;;;8.65;67.63
43147;BME280;28752;48.266;7.402;2024-02-28T05:58:43;99679.75;;;8.62;67.70
43147;BME280;28752;48.266;7.402;2024-02-28T06:01:09;99684.59;;;8.57;67.87
43147;BME280;28752;48.266;7.402;2024-02-28T06:03:34;99692.16;;;8.39;68.25
43147;BME280;28752;48.266;7.402;2024-02-28T06:05:59;99695.25;;;8.23;68.89
43147;BME280;28752;48.266;7.402;2024-02-28T06:08:24;99702.16;;;8.24;68.75
43147;BME280;28752;48.266;7.402;2024-02-28T06:10:50;99698.69;;;8.24;69.05
43147;BME280;28752;48.266;7.402;2024-02-28T06:13:17;99691.38;;;8.27;69.06
43147;BME280;28752;48.266;7.402;2024-02-28T06:15:43;99698.50;;;8.04;69.29
43147;BME280;28752;48.266;7.402;2024-02-28T06:18:08;99707.47;;;8.13;69.20
43147;BME280;28752;48.266;7.402;2024-02-28T06:20:34;99712.19;;;8.09;69.50
43147;BME280;28752;48.266;7.402;2024-02-28T06:23:20;99718.41;;;8.08;69.66
43147;BME280;28752;48.266;7.402;2024-02-28T06:25:45;99721.78;;;7.99;70.07
43147;BME280;28752;48.266;7.402;2024-02-28T06:28:10;99718.41;;;8.08;69.79
43147;BME280;28752;48.266;7.402;2024-02-28T06:30:35;99719.34;;;8.07;70.00
43147;BME280;28752;48.266;7.402;2024-02-28T06:33:01;99730.63;;;8.09;69.75
43147;BME280;28752;48.266;7.402;2024-02-28T06:35:26;99732.91;;;8.03;69.65
43147;BME280;28752;48.266;7.402;2024-02-28T06:37:51;99734.97;;;7.99;69.91
43147;BME280;28752;48.266;7.402;2024-02-28T06:40:17;99737.22;;;8.04;69.86
43147;BME280;28752;48.266;7.402;2024-02-28T06:42:42;99744.41;;;8.01;69.91
43147;BME280;28752;48.266;7.402;2024-02-28T06:45:07;99748.38;;;8.07;69.71
43147;BME280;28752;48.266;7.402;2024-02-28T06:47:33;99748.84;;;8.12;69.59
43147;BME280;28752;48.266;7.402;2024-02-28T06:49:59;99752.66;;;8.19;69.44
43147;BME280;28752;48.266;7.402;2024-02-28T06:52:24;99757.69;;;8.23;69.73
43147;BME280;28752;48.266;7.402;2024-02-28T06:54:49;99767.63;;;8.42;69.04
43147;BME280;28752;48.266;7.402;2024-02-28T06:57:14;99772.38;;;8.70;68.04
43147;BME280;28752;48.266;7.402;2024-02-28T06:59:39;99780.06;;;8.95;67.18
43147;BME280;28752;48.266;7.402;2024-02-28T07:02:05;99787.13;;;8.94;67.10
43147;BME280;28752;48.266;7.402;2024-02-28T07:04:30;99787.88;;;8.96;67.21
43147;BME280;28752;48.266;7.402;2024-02-28T07:06:55;99793.72;;;9.00;67.13
43147;BME280;28752;48.266;7.402;2024-02-28T07:09:20;99805.72;;;9.04;67.15
43147;BME280;28752;48.266;7.402;2024-02-28T07:11:46;99801.53;;;9.01;67.14
43147;BME280;28752;48.266;7.402;2024-02-28T07:14:11;99800.31;;;9.05;67.06
43147;BME280;28752;48.266;7.402;2024-02-28T07:16:37;99801.97;;;9.28;66.72
43147;BME280;28752;48.266;7.402;2024-02-28T07:19:02;99813.16;;;9.31;66.64
43147;BME280;28752;48.266;7.402;2024-02-28T07:21:27;99815.06;;;9.29;66.66
43147;BME280;28752;48.266;7.402;2024-02-28T07:23:52;99818.75;;;9.38;66.89
43147;BME280;28752;48.266;7.402;2024-02-28T07:26:19;99816.44;;;9.66;66.11
43147;BME280;28752;48.266;7.402;2024-02-28T07:28:44;99819.81;;;9.77;65.49
43147;BME280;28752;48.266;7.402;2024-02-28T07:31:18;99827.06;;;9.54;65.60
43147;BME280;28752;48.266;7.402;2024-02-28T07:33:43;99827.53;;;9.38;65.79
43147;BME280;28752;48.266;7.402;2024-02-28T07:36:09;99820.34;;;9.71;65.36
43147;BME280;28752;48.266;7.402;2024-02-28T07:38:35;99827.16;;;9.95;64.79
43147;BME280;28752;48.266;7.402;2024-02-28T07:41:00;99826.72;;;9.90;64.78
43147;BME280;28752;48.266;7.402;2024-02-28T07:43:25;99836.19;;;9.92;64.51
43147;BME280;28752;48.266;7.402;2024-02-28T07:45:50;99832.31;;;9.96;64.01
43147;BME280;28752;48.266;7.402;2024-02-28T07:48:16;99847.34;;;10.27;63.96
43147;BME280;28752;48.266;7.402;2024-02-28T07:50:44;99846.66;;;10.25;63.64
43147;BME280;28752;48.266;7.402;2024-02-28T07:53:10;99847.44;;;10.46;63.53
43147;BME280;28752;48.266;7.402;2024-02-28T07:55:35;99841.81;;;11.10;62.30
43147;BME280;28752;48.266;7.402;2024-02-28T07:58:00;99843.38;;;11.12;60.79
43147;BME280;28752;48.266;7.402;2024-02-28T08:00:26;99839.03;;;11.11;61.20
43147;BME280;28752;48.266;7.402;2024-02-28T08:02:51;99842.94;;;10.97;61.67
43147;BME280;28752;48.266;7.402;2024-02-28T08:05:16;99843.50;;;10.81;61.84
43147;BME280;28752;48.266;7.402;2024-02-28T08:07:42;99841.97;;;10.98;61.14
43147;BME280;28752;48.266;7.402;2024-02-28T08:10:08;99846.28;;;10.90;61.29
43147;BME280;28752;48.266;7.402;2024-02-28T08:12:35;99848.31;;;10.57;62.39
43147;BME280;28752;48.266;7.402;2024-02-28T08:15:00;99859.94;;;10.75;61.99
43147;BME280;28752;48.266;7.402;2024-02-28T08:17:25;99851.59;;;10.99;61.53
43147;BME280;28752;48.266;7.402;2024-02-28T08:19:50;99860.63;;;10.77;61.41
43147;BME280;28752;48.266;7.402;2024-02-28T08:22:16;99863.69;;;10.82;61.53
43147;BME280;28752;48.266;7.402;2024-02-28T08:24:41;99862.63;;;11.44;61.06
43147;BME280;28752;48.266;7.402;2024-02-28T08:27:06;99868.34;;;11.39;59.97
43147;BME280;28752;48.266;7.402;2024-02-28T08:29:31;99863.59;;;11.33;60.79
43147;BME280;28752;48.266;7.402;2024-02-28T08:31:57;99865.41;;;11.32;60.62
43147;BME280;28752;48.266;7.402;2024-02-28T08:34:23;99874.59;;;10.89;61.88
43147;BME280;28752;48.266;7.402;2024-02-28T08:36:48;99874.13;;;10.84;62.11
43147;BME280;28752;48.266;7.402;2024-02-28T08:39:14;99862.72;;;10.74;62.97
43147;BME280;28752;48.266;7.402;2024-02-28T08:41:39;99868.03;;;11.03;62.20
43147;BME280;28752;48.266;7.402;2024-02-28T08:44:04;99860.25;;;10.92;62.11
43147;BME280;28752;48.266;7.402;2024-02-28T08:46:29;99866.22;;;10.94;61.66
43147;BME280;28752;48.266;7.402;2024-02-28T08:48:55;99865.22;;;10.85;62.47
43147;BME280;28752;48.266;7.402;2024-02-28T08:51:21;99863.03;;;11.00;62.38
43147;BME280;28752;48.266;7.402;2024-02-28T08:53:46;99860.63;;;10.68;62.96
43147;BME280;28752;48.266;7.402;2024-02-28T08:56:11;99864.00;;;10.89;62.09
43147;BME280;28752;48.266;7.402;2024-02-28T08:58:37;99867.88;;;10.85;62.07
43147;BME280;28752;48.266;7.402;2024-02-28T09:01:02;99858.84;;;10.88;62.19
43147;BME280;28752;48.266;7.402;2024-02-28T09:03:28;99866.78;;;10.88;62.15
43147;BME280;28752;48.266;7.402;2024-02-28T09:05:53;99862.16;;;10.90;62.21
43147;BME280;28752;48.266;7.402;2024-02-28T09:08:18;99854.25;;;11.29;61.49
43147;BME280;28752;48.266;7.402;2024-02-28T09:10:43;99858.72;;;11.18;61.37
43147;BME280;28752;48.266;7.402;2024-02-28T09:13:09;99852.00;;;11.14;61.51
43147;BME280;28752;48.266;7.402;2024-02-28T09:15:35;99850.78;;;11.28;61.38
43147;BME280;28752;48.266;7.402;2024-02-28T09:18:00;99858.44;;;11.51;61.09
43147;BME280;28752;48.266;7.402;2024-02-28T09:20:26;99857.59;;;11.41;60.85
43147;BME280;28752;48.266;7.402;2024-02-28T09:22:51;99855.34;;;10.97;62.32
43147;BME280;28752;48.266;7.402;2024-02-28T09:25:16;99851.84;;;10.77;62.38
43147;BME280;28752;48.266;7.402;2024-02-28T09:27:43;99856.47;;;11.14;62.24
43147;BME280;28752;48.266;7.402;2024-02-28T09:30:08;99848.41;;;11.06;61.86
43147;BME280;28752;48.266;7.402;2024-02-28T09:32:34;99849.25;;;11.16;61.49
43147;BME280;28752;48.266;7.402;2024-02-28T09:34:59;99858.84;;;11.36;61.58
43147;BME280;28752;48.266;7.402;2024-02-28T09:37:24;99858.72;;;11.38;61.09
43147;BME280;28752;48.266;7.402;2024-02-28T09:39:50;99860.09;;;11.42;61.01
43147;BME280;28752;48.266;7.402;2024-02-28T09:42:15;99857.59;;;11.60;60.87
43147;BME280;28752;48.266;7.402;2024-02-28T09:44:41;99852.97;;;11.43;60.31
43147;BME280;28752;48.266;7.402;2024-02-28T09:47:07;99853.56;;;11.27;60.68
43147;BME280;28752;48.266;7.402;2024-02-28T09:49:34;99852.00;;;11.34;61.31
43147;BME280;28752;48.266;7.402;2024-02-28T09:52:02;99851.88;;;11.45;60.95
43147;BME280;28752;48.266;7.402;2024-02-28T09:54:28;99852.41;;;11.49;60.49
43147;BME280;28752;48.266;7.402;2024-02-28T09:56:54;99850.63;;;11.49;60.82
43147;BME280;28752;48.266;7.402;2024-02-28T09:59:19;99857.16;;;11.35;61.47
43147;BME280;28752;48.266;7.402;2024-02-28T10:01:47;99849.09;;;11.27;61.85
43147;BME280;28752;48.266;7.402;2024-02-28T10:04:16;99847.09;;;11.49;61.76
43147;BME280;28752;48.266;7.402;2024-02-28T10:06:42;99850.31;;;11.62;62.47
43147;BME280;28752;48.266;7.402;2024-02-28T10:09:07;99855.72;;;11.80;61.14
43147;BME280;28752;48.266;7.402;2024-02-28T10:11:32;99862.84;;;11.80;61.17
43147;BME280;28752;48.266;7.402;2024-02-28T10:14:00;99853.94;;;11.71;61.23
43147;BME280;28752;48.266;7.402;2024-02-28T10:16:26;99850.75;;;11.38;61.54
43147;BME280;28752;48.266;7.402;2024-02-28T10:18:55;99860.72;;;11.93;61.29
43147;BME280;28752;48.266;7.402;2024-02-28T10:21:30;99869.59;;;12.21;61.10
43147;BME280;28752;48.266;7.402;2024-02-28T10:24:00;99867.72;;;11.84;61.68
43147;BME280;28752;48.266;7.402;2024-02-28T10:26:26;99870.47;;;12.12;61.19
43147;BME280;28752;48.266;7.402;2024-02-28T10:29:00;99877.25;;;12.24;59.95
43147;BME280;28752;48.266;7.402;2024-02-28T10:31:32;99870.94;;;12.35;58.49
43147;BME280;28752;48.266;7.402;2024-02-28T10:34:01;99878.00;;;12.17;57.26
43147;BME280;28752;48.266;7.402;2024-02-28T10:36:27;99876.50;;;11.95;58.72
43147;BME280;28752;48.266;7.402;2024-02-28T10:38:58;99884.91;;;11.80;59.59
43147;BME280;28752;48.266;7.402;2024-02-28T10:41:27;99879.59;;;12.00;59.80
43147;BME280;28752;48.266;7.402;2024-02-28T10:43:59;99882.91;;;12.02;59.66
43147;BME280;28752;48.266;7.402;2024-02-28T10:46:28;99889.19;;;12.01;59.65
43147;BME280;28752;48.266;7.402;2024-02-28T10:48:54;99886.97;;;12.06;59.68
43147;BME280;28752;48.266;7.402;2024-02-28T10:51:28;99887.50;;;12.09;59.53
43147;BME280;28752;48.266;7.402;2024-02-28T10:54:07;99885.91;;;12.26;59.97
43147;BME280;28752;48.266;7.402;2024-02-28T10:56:43;99890.78;;;12.31;60.13
43147;BME280;28752;48.266;7.402;2024-02-28T10:59:10;99892.13;;;12.07;60.99
43147;BME280;28752;48.266;7.402;2024-02-28T11:01:43;99900.63;;;12.21;61.25
43147;BME280;28752;48.266;7.402;2024-02-28T11:04:12;99894.31;;;12.22;61.15
43147;BME280;28752;48.266;7.402;2024-02-28T11:06:50;99897.34;;;12.37;60.07
43147;BME280;28752;48.266;7.402;2024-02-28T11:09:18;99909.16;;;12.15;59.88
43147;BME280;28752;48.266;7.402;2024-02-28T11:11:44;99894.06;;;12.15;59.58
43147;BME280;28752;48.266;7.402;2024-02-28T11:14:14;99886.94;;;12.16;61.28
43147;BME280;28752;48.266;7.402;2024-02-28T11:16:39;99883.00;;;12.57;60.64
43147;BME280;28752;48.266;7.402;2024-02-28T11:19:07;99894.97;;;12.61;60.38
43147;BME280;28752;48.266;7.402;2024-02-28T11:21:34;99888.66;;;12.72;60.58
43147;BME280;28752;48.266;7.402;2024-02-28T11:24:00;99896.78;;;12.71;59.71
43147;BME280;28752;48.266;7.402;2024-02-28T11:26:28;99900.63;;;12.76;59.30
43147;BME280;28752;48.266;7.402;2024-02-28T11:28:54;99895.91;;;12.42;59.00
43147;BME280;28752;48.266;7.402;2024-02-28T11:31:20;99888.00;;;12.88;58.34
43147;BME280;28752;48.266;7.402;2024-02-28T11:33:45;99892.38;;;12.79;58.23
43147;BME280;28752;48.266;7.402;2024-02-28T11:36:11;99893.94;;;12.44;57.72
43147;BME280;28752;48.266;7.402;2024-02-28T11:38:38;99887.94;;;12.42;55.23
43147;BME280;28752;48.266;7.402;2024-02-28T11:41:03;99885.81;;;12.56;55.23
43147;BME280;28752;48.266;7.402;2024-02-28T11:43:30;99884.69;;;12.76;57.74
43147;BME280;28752;48.266;7.402;2024-02-28T11:45:55;99882.31;;;13.19;57.73
43147;BME280;28752;48.266;7.402;2024-02-28T11:48:21;99885.25;;;12.98;56.75
43147;BME280;28752;48.266;7.402;2024-02-28T11:50:46;99887.66;;;12.73;56.91
43147;BME280;28752;48.266;7.402;2024-02-28T11:53:11;99889.47;;;12.73;54.62
43147;BME280;28752;48.266;7.402;2024-02-28T11:55:37;99886.03;;;12.62;55.33
43147;BME280;28752;48.266;7.402;2024-02-28T11:58:07;99886.44;;;13.13;56.36
43147;BME280;28752;48.266;7.402;2024-02-28T12:00:32;99885.91;;;13.46;54.99
43147;BME280;28752;48.266;7.402;2024-02-28T12:03:05;99882.16;;;13.21;54.56
43147;BME280;28752;48.266;7.402;2024-02-28T12:05:31;99876.44;;;12.79;56.03
43147;BME280;28752;48.266;7.402;2024-02-28T12:07:56;99872.75;;;13.26;55.80
43147;BME280;28752;48.266;7.402;2024-02-28T12:10:23;99876.16;;;13.01;56.21
43147;BME280;28752;48.266;7.402;2024-02-28T12:12:48;99869.88;;;13.20;56.08
43147;BME280;28752;48.266;7.402;2024-02-28T12:15:15;99871.25;;;12.78;56.96
43147;BME280;28752;48.266;7.402;2024-02-28T12:17:42;99869.47;;;12.78;56.99
43147;BME280;28752;48.266;7.402;2024-02-28T12:20:07;99866.81;;;12.78;56.61
43147;BME280;28752;48.266;7.402;2024-02-28T12:22:33;99854.50;;;12.95;55.94
43147;BME280;28752;48.266;7.402;2024-02-28T12:24:58;99857.06;;;12.87;56.36
43147;BME280;28752;48.266;7.402;2024-02-28T12:27:25;99851.88;;;12.68;56.05
43147;BME280;28752;48.266;7.402;2024-02-28T12:29:51;99849.63;;;12.73;55.98
43147;BME280;28752;48.266;7.402;2024-02-28T12:32:16;99852.47;;;12.89;56.31
43147;BME280;28752;48.266;7.402;2024-02-28T12:34:42;99847.63;;;13.03;55.68
43147;BME280;28752;48.266;7.402;2024-02-28T12:37:08;99846.44;;;13.05;54.96
43147;BME280;28752;48.266;7.402;2024-02-28T12:39:33;99859.91;;;13.22;55.97
43147;BME280;28752;48.266;7.402;2024-02-28T12:41:59;99861.72;;;13.03;56.25
43147;BME280;28752;48.266;7.402;2024-02-28T12:44:24;99845.84;;;12.75;55.73
43147;BME280;28752;48.266;7.402;2024-02-28T12:46:49;99849.56;;;12.83;55.12
43147;BME280;28752;48.266;7.402;2024-02-28T12:49:15;99838.41;;;13.15;55.18
43147;BME280;28752;48.266;7.402;2024-02-28T12:51:44;99841.94;;;13.33;54.89
43147;BME280;28752;48.266;7.402;2024-02-28T12:54:14;99842.06;;;13.14;53.51
43147;BME280;28752;48.266;7.402;2024-02-28T12:56:40;99836.59;;;12.97;52.43
43147;BME280;28752;48.266;7.402;2024-02-28T12:59:08;99834.09;;;13.14;51.67
43147;BME280;28752;48.266;7.402;2024-02-28T13:01:33;99824.38;;;13.41;52.19